sensor_id;sensor_type;location;lat;lon;timestamp;P1;durP1;ratioP1;P2;durP2;ratioP2
24373;SDS011;12498;50.880;12.096;2022-12-04T00:00:47;113.00;;;43.55;;
24373;SDS011;12498;50.880;12.096;2022-12-04T00:03:13;117.63;;;45.17;;
24373;SDS011;12498;50.880;12.096;2022-12-04T00:05:38;116.20;;;44.03;;
24373;SDS011;12498;50.880;12.096;2022-12-04T00:08:04;116.10;;;44.80;;
24373;SDS011;12498;50.880;12.096;2022-12-04T00:10:30;124.88;;;45.13;;
24373;SDS011;12498;50.880;12.096;2022-12-04T00:12:56;115.22;;;43.95;;
24373;SDS011;12498;50.880;12.096;2022-12-04T00:15:22;114.15;;;43.38;;
24373;SDS011;12498;50.880;12.096;2022-12-04T00:17:48;118.95;;;43.90;;
24373;SDS011;12498;50.880;12.096;2022-12-04T00:20:14;110.63;;;42.42;;
24373;SDS011;12498;50.880;12.096;2022-12-04T00:22:39;115.90;;;42.78;;
24373;SDS011;12498;50.880;12.096;2022-12-04T00:25:05;112.70;;;44.70;;
24373;SDS011;12498;50.880;12.096;2022-12-04T00:27:31;108.93;;;42.83;;
24373;SDS011;12498;50.880;12.096;2022-12-04T00:29:56;111.28;;;43.78;;
24373;SDS011;12498;50.880;12.096;2022-12-04T00:32:22;113.28;;;42.65;;
24373;SDS011;12498;50.880;12.096;2022-12-04T00:34:50;111.35;;;43.65;;
24373;SDS011;12498;50.880;12.096;2022-12-04T00:37:16;103.63;;;42.53;;
24373;SDS011;12498;50.880;12.096;2022-12-04T00:39:42;115.80;;;44.20;;
24373;SDS011;12498;50.880;12.096;2022-12-04T00:42:07;112.13;;;43.90;;
24373;SDS011;12498;50.880;12.096;2022-12-04T00:44:33;117.40;;;43.20;;
24373;SDS011;12498;50.880;12.096;2022-12-04T00:46:59;115.70;;;42.95;;
24373;SDS011;12498;50.880;12.096;2022-12-04T00:49:24;121.25;;;43.35;;
24373;SDS011;12498;50.880;12.096;2022-12-04T00:51:50;113.97;;;43.25;;
24373;SDS011;12498;50.880;12.096;2022-12-04T00:54:15;111.93;;;42.53;;
24373;SDS011;12498;50.880;12.096;2022-12-04T00:56:41;112.35;;;43.33;;
24373;SDS011;12498;50.880;12.096;2022-12-04T00:59:06;121.90;;;45.30;;
24373;SDS011;12498;50.880;12.096;2022-12-04T01:01:34;116.53;;;43.72;;
24373;SDS011;12498;50.880;12.096;2022-12-04T01:03:59;116.25;;;44.20;;
24373;SDS011;12498;50.880;12.096;2022-12-04T01:06:29;116.03;;;44.22;;
24373;SDS011;12498;50.880;12.096;2022-12-04T01:08:57;116.05;;;44.78;;
24373;SDS011;12498;50.880;12.096;2022-12-04T01:11:24;117.57;;;43.78;;
24373;SDS011;12498;50.880;12.096;2022-12-04T01:13:50;117.05;;;43.17;;
24373;SDS011;12498;50.880;12.096;2022-12-04T01:16:23;118.88;;;45.35;;
24373;SDS011;12498;50.880;12.096;2022-12-04T01:18:52;108.70;;;43.38;;
24373;SDS011;12498;50.880;12.096;2022-12-04T01:21:18;121.57;;;44.70;;
24373;SDS011;12498;50.880;12.096;2022-12-04T01:23:44;115.70;;;43.88;;
24373;SDS011;12498;50.880;12.096;2022-12-04T01:26:10;114.28;;;43.75;;
24373;SDS011;12498;50.880;12.096;2022-12-04T01:28:37;118.90;;;44.92;;
24373;SDS011;12498;50.880;12.096;2022-12-04T01:31:04;121.47;;;45.50;;
24373;SDS011;12498;50.880;12.096;2022-12-04T01:33:35;112.97;;;44.33;;
24373;SDS011;12498;50.880;12.096;2022-12-04T01:36:03;119.95;;;44.53;;
24373;SDS011;12498;50.880;12.096;2022-12-04T01:38:32;116.15;;;44.50;;
24373;SDS011;12498;50.880;12.096;2022-12-04T01:40:58;113.43;;;43.63;;
24373;SDS011;12498;50.880;12.096;2022-12-04T01:43:25;113.63;;;43.92;;
24373;SDS011;12498;50.880;12.096;2022-12-04T01:45:52;112.93;;;44.08;;
24373;SDS011;12498;50.880;12.096;2022-12-04T01:48:36;112.40;;;42.88;;
24373;SDS011;12498;50.880;12.096;2022-12-04T01:51:14;112.20;;;44.25;;
24373;SDS011;12498;50.880;12.096;2022-12-04T01:53:57;119.95;;;44.55;;
24373;SDS011;12498;50.880;12.096;2022-12-04T01:56:25;118.53;;;44.53;;
24373;SDS011;12498;50.880;12.096;2022-12-04T01:59:05;119.50;;;44.33;;
24373;SDS011;12498;50.880;12.096;2022-12-04T02:01:38;125.97;;;44.03;;
24373;SDS011;12498;50.880;12.096;2022-12-04T02:04:08;118.00;;;44.83;;
24373;SDS011;12498;50.880;12.096;2022-12-04T02:06:33;120.97;;;45.95;;
24373;SDS011;12498;50.880;12.096;2022-12-04T02:08:59;124.10;;;45.08;;
24373;SDS011;12498;50.880;12.096;2022-12-04T02:16:40;125.63;;;46.00;;
24373;SDS011;12498;50.880;12.096;2022-12-04T02:21:43;125.40;;;44.75;;
24373;SDS011;12498;50.880;12.096;2022-12-04T02:32:06;119.35;;;43.78;;
24373;SDS011;12498;50.880;12.096;2022-12-04T02:37:29;111.60;;;43.67;;
24373;SDS011;12498;50.880;12.096;2022-12-04T02:42:52;124.95;;;44.58;;
24373;SDS011;12498;50.880;12.096;2022-12-04T02:45:36;121.50;;;44.97;;
24373;SDS011;12498;50.880;12.096;2022-12-04T02:48:06;119.53;;;44.95;;
24373;SDS011;12498;50.880;12.096;2022-12-04T02:50:36;123.18;;;44.63;;
24373;SDS011;12498;50.880;12.096;2022-12-04T02:53:08;121.28;;;43.78;;
24373;SDS011;12498;50.880;12.096;2022-12-04T02:55:48;113.50;;;43.25;;
24373;SDS011;12498;50.880;12.096;2022-12-04T02:58:24;128.07;;;45.08;;
24373;SDS011;12498;50.880;12.096;2022-12-04T03:00:56;115.78;;;43.33;;
24373;SDS011;12498;50.880;12.096;2022-12-04T03:03:29;119.63;;;43.63;;
24373;SDS011;12498;50.880;12.096;2022-12-04T03:06:07;127.30;;;46.97;;
24373;SDS011;12498;50.880;12.096;2022-12-04T03:08:41;127.07;;;45.58;;
24373;SDS011;12498;50.880;12.096;2022-12-04T03:11:10;121.25;;;44.65;;
24373;SDS011;12498;50.880;12.096;2022-12-04T03:18:49;129.10;;;44.88;;
24373;SDS011;12498;50.880;12.096;2022-12-04T03:21:22;127.38;;;45.25;;
24373;SDS011;12498;50.880;12.096;2022-12-04T03:23:56;119.32;;;44.42;;
24373;SDS011;12498;50.880;12.096;2022-12-04T03:26:32;115.07;;;51.40;;
24373;SDS011;12498;50.880;12.096;2022-12-04T03:31:56;133.52;;;46.30;;
24373;SDS011;12498;50.880;12.096;2022-12-04T03:34:32;129.82;;;44.05;;
24373;SDS011;12498;50.880;12.096;2022-12-04T03:37:12;120.78;;;44.45;;
24373;SDS011;12498;50.880;12.096;2022-12-04T03:39:54;126.85;;;44.60;;
24373;SDS011;12498;50.880;12.096;2022-12-04T03:42:25;130.75;;;45.88;;
24373;SDS011;12498;50.880;12.096;2022-12-04T03:45:16;122.93;;;44.63;;
24373;SDS011;12498;50.880;12.096;2022-12-04T03:50:27;123.88;;;44.38;;
24373;SDS011;12498;50.880;12.096;2022-12-04T03:53:07;129.50;;;45.55;;
24373;SDS011;12498;50.880;12.096;2022-12-04T03:55:46;129.77;;;45.67;;
24373;SDS011;12498;50.880;12.096;2022-12-04T03:58:27;128.85;;;44.00;;
24373;SDS011;12498;50.880;12.096;2022-12-04T04:00:56;123.55;;;44.35;;
24373;SDS011;12498;50.880;12.096;2022-12-04T04:03:28;97.55;;;34.70;;
24373;SDS011;12498;50.880;12.096;2022-12-04T04:06:08;134.25;;;43.03;;
24373;SDS011;12498;50.880;12.096;2022-12-04T04:08:41;130.63;;;44.85;;
24373;SDS011;12498;50.880;12.096;2022-12-04T04:11:12;121.85;;;45.28;;
24373;SDS011;12498;50.880;12.096;2022-12-04T04:13:49;136.70;;;46.20;;
24373;SDS011;12498;50.880;12.096;2022-12-04T04:16:39;133.23;;;45.83;;
24373;SDS011;12498;50.880;12.096;2022-12-04T04:19:27;131.63;;;44.38;;
24373;SDS011;12498;50.880;12.096;2022-12-04T04:22:15;128.60;;;43.85;;
24373;SDS011;12498;50.880;12.096;2022-12-04T04:25:02;134.00;;;45.40;;
24373;SDS011;12498;50.880;12.096;2022-12-04T04:27:31;123.85;;;44.50;;
24373;SDS011;12498;50.880;12.096;2022-12-04T04:29:57;128.52;;;44.45;;
24373;SDS011;12498;50.880;12.096;2022-12-04T04:35:07;128.15;;;44.80;;
24373;SDS011;12498;50.880;12.096;2022-12-04T04:40:35;129.75;;;44.22;;
24373;SDS011;12498;50.880;12.096;2022-12-04T04:43:10;129.82;;;43.50;;
24373;SDS011;12498;50.880;12.096;2022-12-04T04:45:45;126.88;;;44.05;;
24373;SDS011;12498;50.880;12.096;2022-12-04T04:48:25;131.20;;;45.10;;
24373;SDS011;12498;50.880;12.096;2022-12-04T04:51:10;129.00;;;45.55;;
24373;SDS011;12498;50.880;12.096;2022-12-04T04:53:38;119.65;;;44.17;;
24373;SDS011;12498;50.880;12.096;2022-12-04T04:56:19;122.03;;;44.40;;
24373;SDS011;12498;50.880;12.096;2022-12-04T04:58:45;130.02;;;44.72;;
24373;SDS011;12498;50.880;12.096;2022-12-04T05:01:18;134.30;;;45.63;;
24373;SDS011;12498;50.880;12.096;2022-12-04T05:03:47;125.13;;;45.58;;
24373;SDS011;12498;50.880;12.096;2022-12-04T05:06:12;135.40;;;46.95;;
24373;SDS011;12498;50.880;12.096;2022-12-04T05:08:38;128.90;;;45.67;;
24373;SDS011;12498;50.880;12.096;2022-12-04T05:11:05;139.52;;;46.80;;
24373;SDS011;12498;50.880;12.096;2022-12-04T05:13:34;133.30;;;45.38;;
24373;SDS011;12498;50.880;12.096;2022-12-04T05:16:01;130.75;;;46.00;;
24373;SDS011;12498;50.880;12.096;2022-12-04T05:18:29;129.75;;;45.72;;
24373;SDS011;12498;50.880;12.096;2022-12-04T05:20:55;128.18;;;45.45;;
24373;SDS011;12498;50.880;12.096;2022-12-04T05:23:21;133.98;;;46.13;;
24373;SDS011;12498;50.880;12.096;2022-12-04T05:25:48;136.68;;;46.88;;
24373;SDS011;12498;50.880;12.096;2022-12-04T05:28:14;139.82;;;48.22;;
24373;SDS011;12498;50.880;12.096;2022-12-04T05:30:39;130.25;;;46.38;;
24373;SDS011;12498;50.880;12.096;2022-12-04T05:33:05;139.75;;;48.70;;
24373;SDS011;12498;50.880;12.096;2022-12-04T05:35:31;141.23;;;48.47;;
24373;SDS011;12498;50.880;12.096;2022-12-04T05:37:57;140.20;;;48.13;;
24373;SDS011;12498;50.880;12.096;2022-12-04T05:40:22;137.93;;;46.38;;
24373;SDS011;12498;50.880;12.096;2022-12-04T05:42:48;146.50;;;47.97;;
24373;SDS011;12498;50.880;12.096;2022-12-04T05:45:14;141.70;;;48.33;;
24373;SDS011;12498;50.880;12.096;2022-12-04T05:47:40;147.73;;;48.92;;
24373;SDS011;12498;50.880;12.096;2022-12-04T05:50:06;144.65;;;49.92;;
24373;SDS011;12498;50.880;12.096;2022-12-04T05:52:34;146.35;;;48.50;;
24373;SDS011;12498;50.880;12.096;2022-12-04T05:55:03;137.80;;;50.22;;
24373;SDS011;12498;50.880;12.096;2022-12-04T05:57:29;139.93;;;49.13;;
24373;SDS011;12498;50.880;12.096;2022-12-04T05:59:55;144.93;;;50.53;;
24373;SDS011;12498;50.880;12.096;2022-12-04T06:02:20;142.90;;;49.50;;
24373;SDS011;12498;50.880;12.096;2022-12-04T06:04:46;134.57;;;49.13;;
24373;SDS011;12498;50.880;12.096;2022-12-04T06:07:11;139.43;;;48.85;;
24373;SDS011;12498;50.880;12.096;2022-12-04T06:09:37;137.25;;;48.10;;
24373;SDS011;12498;50.880;12.096;2022-12-04T06:12:03;145.65;;;49.78;;
24373;SDS011;12498;50.880;12.096;2022-12-04T06:14:29;148.98;;;49.97;;
24373;SDS011;12498;50.880;12.096;2022-12-04T06:16:55;144.73;;;49.50;;
24373;SDS011;12498;50.880;12.096;2022-12-04T06:19:21;143.57;;;49.63;;
24373;SDS011;12498;50.880;12.096;2022-12-04T06:21:48;150.30;;;50.85;;
24373;SDS011;12498;50.880;12.096;2022-12-04T06:24:17;146.68;;;51.42;;
24373;SDS011;12498;50.880;12.096;2022-12-04T06:26:45;142.48;;;50.28;;
24373;SDS011;12498;50.880;12.096;2022-12-04T06:29:11;138.60;;;50.80;;
24373;SDS011;12498;50.880;12.096;2022-12-04T06:31:40;141.35;;;51.40;;
24373;SDS011;12498;50.880;12.096;2022-12-04T06:34:06;143.95;;;49.53;;
24373;SDS011;12498;50.880;12.096;2022-12-04T06:36:33;148.38;;;51.40;;
24373;SDS011;12498;50.880;12.096;2022-12-04T06:38:59;142.10;;;51.38;;
24373;SDS011;12498;50.880;12.096;2022-12-04T06:41:25;148.07;;;52.78;;
24373;SDS011;12498;50.880;12.096;2022-12-04T06:43:53;155.93;;;49.63;;
24373;SDS011;12498;50.880;12.096;2022-12-04T06:46:20;158.85;;;52.97;;
24373;SDS011;12498;50.880;12.096;2022-12-04T06:48:48;154.83;;;52.77;;
24373;SDS011;12498;50.880;12.096;2022-12-04T06:51:15;150.30;;;52.45;;
24373;SDS011;12498;50.880;12.096;2022-12-04T06:53:41;157.60;;;52.30;;
24373;SDS011;12498;50.880;12.096;2022-12-04T06:56:09;154.40;;;53.22;;
24373;SDS011;12498;50.880;12.096;2022-12-04T06:58:36;154.00;;;52.75;;
24373;SDS011;12498;50.880;12.096;2022-12-04T07:01:06;153.02;;;52.22;;
24373;SDS011;12498;50.880;12.096;2022-12-04T07:03:33;154.45;;;52.80;;
24373;SDS011;12498;50.880;12.096;2022-12-04T07:06:08;152.77;;;50.88;;
24373;SDS011;12498;50.880;12.096;2022-12-04T07:08:36;165.48;;;52.03;;
24373;SDS011;12498;50.880;12.096;2022-12-04T07:11:02;169.98;;;53.53;;
24373;SDS011;12498;50.880;12.096;2022-12-04T07:13:27;164.35;;;53.95;;
24373;SDS011;12498;50.880;12.096;2022-12-04T07:15:53;161.68;;;53.90;;
24373;SDS011;12498;50.880;12.096;2022-12-04T07:18:18;154.75;;;51.83;;
24373;SDS011;12498;50.880;12.096;2022-12-04T07:20:44;164.20;;;53.00;;
24373;SDS011;12498;50.880;12.096;2022-12-04T07:23:10;165.60;;;52.92;;
24373;SDS011;12498;50.880;12.096;2022-12-04T07:25:39;159.23;;;53.63;;
24373;SDS011;12498;50.880;12.096;2022-12-04T07:28:05;172.90;;;54.63;;
24373;SDS011;12498;50.880;12.096;2022-12-04T07:30:31;183.80;;;54.60;;
24373;SDS011;12498;50.880;12.096;2022-12-04T07:32:56;172.20;;;55.25;;
24373;SDS011;12498;50.880;12.096;2022-12-04T07:35:22;164.00;;;52.25;;
24373;SDS011;12498;50.880;12.096;2022-12-04T07:37:48;172.40;;;56.28;;
24373;SDS011;12498;50.880;12.096;2022-12-04T07:40:13;171.88;;;54.00;;
24373;SDS011;12498;50.880;12.096;2022-12-04T07:42:39;173.73;;;55.10;;
24373;SDS011;12498;50.880;12.096;2022-12-04T07:45:05;184.68;;;55.50;;
24373;SDS011;12498;50.880;12.096;2022-12-04T07:47:31;179.27;;;55.55;;
24373;SDS011;12498;50.880;12.096;2022-12-04T07:49:58;209.57;;;56.22;;
24373;SDS011;12498;50.880;12.096;2022-12-04T07:52:24;178.02;;;55.65;;
24373;SDS011;12498;50.880;12.096;2022-12-04T07:54:49;179.43;;;54.92;;
24373;SDS011;12498;50.880;12.096;2022-12-04T07:57:15;172.98;;;55.22;;
24373;SDS011;12498;50.880;12.096;2022-12-04T07:59:40;190.77;;;57.72;;
24373;SDS011;12498;50.880;12.096;2022-12-04T08:02:06;171.63;;;55.88;;
24373;SDS011;12498;50.880;12.096;2022-12-04T08:04:31;181.52;;;55.08;;
24373;SDS011;12498;50.880;12.096;2022-12-04T08:06:57;183.82;;;56.58;;
24373;SDS011;12498;50.880;12.096;2022-12-04T08:09:23;175.55;;;55.60;;
24373;SDS011;12498;50.880;12.096;2022-12-04T08:11:48;239.95;;;58.63;;
24373;SDS011;12498;50.880;12.096;2022-12-04T08:14:14;197.00;;;57.40;;
24373;SDS011;12498;50.880;12.096;2022-12-04T08:16:40;179.40;;;55.67;;
24373;SDS011;12498;50.880;12.096;2022-12-04T08:19:05;200.80;;;57.63;;
24373;SDS011;12498;50.880;12.096;2022-12-04T08:21:31;200.82;;;60.72;;
24373;SDS011;12498;50.880;12.096;2022-12-04T08:23:58;197.25;;;60.08;;
24373;SDS011;12498;50.880;12.096;2022-12-04T08:26:25;196.05;;;57.10;;
24373;SDS011;12498;50.880;12.096;2022-12-04T08:28:52;181.82;;;56.95;;
24373;SDS011;12498;50.880;12.096;2022-12-04T08:31:20;178.50;;;56.65;;
24373;SDS011;12498;50.880;12.096;2022-12-04T08:33:48;191.73;;;57.53;;
24373;SDS011;12498;50.880;12.096;2022-12-04T08:36:15;193.73;;;57.00;;
24373;SDS011;12498;50.880;12.096;2022-12-04T08:38:43;180.57;;;57.35;;
24373;SDS011;12498;50.880;12.096;2022-12-04T08:41:10;183.40;;;55.92;;
24373;SDS011;12498;50.880;12.096;2022-12-04T08:43:39;218.65;;;59.78;;
24373;SDS011;12498;50.880;12.096;2022-12-04T08:46:06;232.38;;;59.05;;
24373;SDS011;12498;50.880;12.096;2022-12-04T08:51:00;183.82;;;57.17;;
24373;SDS011;12498;50.880;12.096;2022-12-04T08:55:55;189.68;;;55.15;;
24373;SDS011;12498;50.880;12.096;2022-12-04T08:58:21;185.88;;;57.65;;
24373;SDS011;12498;50.880;12.096;2022-12-04T09:00:47;205.05;;;58.08;;
24373;SDS011;12498;50.880;12.096;2022-12-04T09:03:14;235.13;;;59.60;;
24373;SDS011;12498;50.880;12.096;2022-12-04T09:05:41;187.13;;;57.42;;
24373;SDS011;12498;50.880;12.096;2022-12-04T09:08:09;191.38;;;58.08;;
24373;SDS011;12498;50.880;12.096;2022-12-04T09:10:36;205.45;;;57.58;;
24373;SDS011;12498;50.880;12.096;2022-12-04T09:13:02;198.50;;;58.00;;
24373;SDS011;12498;50.880;12.096;2022-12-04T09:15:28;294.02;;;56.20;;
24373;SDS011;12498;50.880;12.096;2022-12-04T09:17:54;203.40;;;59.20;;
24373;SDS011;12498;50.880;12.096;2022-12-04T09:20:19;206.73;;;60.17;;
24373;SDS011;12498;50.880;12.096;2022-12-04T09:22:45;245.88;;;59.67;;
24373;SDS011;12498;50.880;12.096;2022-12-04T09:25:11;230.00;;;61.22;;
24373;SDS011;12498;50.880;12.096;2022-12-04T09:27:37;220.18;;;61.58;;
24373;SDS011;12498;50.880;12.096;2022-12-04T09:30:06;253.05;;;61.15;;
24373;SDS011;12498;50.880;12.096;2022-12-04T09:32:33;212.38;;;59.05;;
24373;SDS011;12498;50.880;12.096;2022-12-04T09:34:59;206.45;;;59.97;;
24373;SDS011;12498;50.880;12.096;2022-12-04T09:37:24;193.50;;;59.72;;
24373;SDS011;12498;50.880;12.096;2022-12-04T09:39:50;215.52;;;64.07;;
24373;SDS011;12498;50.880;12.096;2022-12-04T09:47:28;234.65;;;63.17;;
24373;SDS011;12498;50.880;12.096;2022-12-04T09:50:09;270.98;;;65.82;;
24373;SDS011;12498;50.880;12.096;2022-12-04T09:55:31;235.93;;;63.15;;
24373;SDS011;12498;50.880;12.096;2022-12-04T09:58:20;237.77;;;62.47;;
24373;SDS011;12498;50.880;12.096;2022-12-04T10:00:49;203.07;;;65.93;;
24373;SDS011;12498;50.880;12.096;2022-12-04T10:03:17;256.17;;;64.80;;
24373;SDS011;12498;50.880;12.096;2022-12-04T10:08:22;225.10;;;62.50;;
24373;SDS011;12498;50.880;12.096;2022-12-04T10:10:58;215.23;;;63.17;;
24373;SDS011;12498;50.880;12.096;2022-12-04T10:16:23;247.55;;;62.83;;
24373;SDS011;12498;50.880;12.096;2022-12-04T10:19:15;228.82;;;61.50;;
24373;SDS011;12498;50.880;12.096;2022-12-04T10:22:02;247.82;;;66.15;;
24373;SDS011;12498;50.880;12.096;2022-12-04T10:24:53;362.98;;;61.38;;
24373;SDS011;12498;50.880;12.096;2022-12-04T10:27:28;241.18;;;63.08;;
24373;SDS011;12498;50.880;12.096;2022-12-04T10:30:02;354.98;;;64.85;;
24373;SDS011;12498;50.880;12.096;2022-12-04T10:32:40;328.92;;;63.50;;
24373;SDS011;12498;50.880;12.096;2022-12-04T10:35:14;342.52;;;64.82;;
24373;SDS011;12498;50.880;12.096;2022-12-04T10:37:52;312.42;;;61.90;;
24373;SDS011;12498;50.880;12.096;2022-12-04T10:40:32;297.00;;;66.95;;
24373;SDS011;12498;50.880;12.096;2022-12-04T10:45:49;321.20;;;63.67;;
24373;SDS011;12498;50.880;12.096;2022-12-04T10:48:21;296.00;;;69.18;;
24373;SDS011;12498;50.880;12.096;2022-12-04T10:50:55;249.80;;;67.38;;
24373;SDS011;12498;50.880;12.096;2022-12-04T10:53:21;437.73;;;68.38;;
24373;SDS011;12498;50.880;12.096;2022-12-04T10:55:54;368.98;;;65.90;;
24373;SDS011;12498;50.880;12.096;2022-12-04T10:58:19;601.85;;;68.88;;
24373;SDS011;12498;50.880;12.096;2022-12-04T11:00:54;349.92;;;66.25;;
24373;SDS011;12498;50.880;12.096;2022-12-04T11:03:29;235.98;;;62.78;;
24373;SDS011;12498;50.880;12.096;2022-12-04T11:05:57;400.77;;;68.30;;
24373;SDS011;12498;50.880;12.096;2022-12-04T11:10:55;299.92;;;64.28;;
24373;SDS011;12498;50.880;12.096;2022-12-04T11:13:24;437.02;;;68.40;;
24373;SDS011;12498;50.880;12.096;2022-12-04T11:15:50;320.83;;;68.65;;
24373;SDS011;12498;50.880;12.096;2022-12-04T11:18:18;344.00;;;72.40;;
24373;SDS011;12498;50.880;12.096;2022-12-04T11:20:54;283.35;;;65.90;;
24373;SDS011;12498;50.880;12.096;2022-12-04T11:23:45;268.00;;;70.82;;
24373;SDS011;12498;50.880;12.096;2022-12-04T11:26:12;337.35;;;68.97;;
24373;SDS011;12498;50.880;12.096;2022-12-04T11:28:39;399.45;;;67.53;;
24373;SDS011;12498;50.880;12.096;2022-12-04T11:31:14;339.13;;;65.68;;
24373;SDS011;12498;50.880;12.096;2022-12-04T11:33:44;247.43;;;67.50;;
24373;SDS011;12498;50.880;12.096;2022-12-04T11:36:30;271.20;;;69.70;;
24373;SDS011;12498;50.880;12.096;2022-12-04T11:39:05;324.67;;;66.63;;
24373;SDS011;12498;50.880;12.096;2022-12-04T11:41:35;385.05;;;65.55;;
24373;SDS011;12498;50.880;12.096;2022-12-04T11:44:00;508.77;;;66.97;;
24373;SDS011;12498;50.880;12.096;2022-12-04T11:46:29;613.50;;;69.20;;
24373;SDS011;12498;50.880;12.096;2022-12-04T11:48:56;344.85;;;68.43;;
24373;SDS011;12498;50.880;12.096;2022-12-04T11:59:38;311.38;;;66.57;;
24373;SDS011;12498;50.880;12.096;2022-12-04T12:28:55;258.08;;;70.55;;
24373;SDS011;12498;50.880;12.096;2022-12-04T12:34:07;363.40;;;72.07;;
24373;SDS011;12498;50.880;12.096;2022-12-04T12:36:41;293.58;;;70.25;;
24373;SDS011;12498;50.880;12.096;2022-12-04T12:39:11;540.92;;;74.75;;
24373;SDS011;12498;50.880;12.096;2022-12-04T12:41:53;513.63;;;70.63;;
24373;SDS011;12498;50.880;12.096;2022-12-04T12:44:26;414.98;;;70.80;;
24373;SDS011;12498;50.880;12.096;2022-12-04T12:47:06;338.55;;;72.65;;
24373;SDS011;12498;50.880;12.096;2022-12-04T12:49:45;384.02;;;70.38;;
24373;SDS011;12498;50.880;12.096;2022-12-04T12:52:14;302.20;;;70.78;;
24373;SDS011;12498;50.880;12.096;2022-12-04T12:54:51;328.80;;;74.55;;
24373;SDS011;12498;50.880;12.096;2022-12-04T12:57:32;326.17;;;71.15;;
24373;SDS011;12498;50.880;12.096;2022-12-04T13:00:06;292.48;;;71.63;;
24373;SDS011;12498;50.880;12.096;2022-12-04T13:05:24;270.20;;;74.03;;
24373;SDS011;12498;50.880;12.096;2022-12-04T13:07:59;292.23;;;75.53;;
24373;SDS011;12498;50.880;12.096;2022-12-04T13:10:39;329.05;;;74.18;;
24373;SDS011;12498;50.880;12.096;2022-12-04T13:13:35;297.45;;;72.28;;
24373;SDS011;12498;50.880;12.096;2022-12-04T13:16:08;342.02;;;72.53;;
24373;SDS011;12498;50.880;12.096;2022-12-04T13:18:39;323.33;;;76.25;;
24373;SDS011;12498;50.880;12.096;2022-12-04T13:26:47;330.10;;;73.32;;
24373;SDS011;12498;50.880;12.096;2022-12-04T13:34:46;329.77;;;73.32;;
24373;SDS011;12498;50.880;12.096;2022-12-04T13:46:01;457.05;;;76.57;;
24373;SDS011;12498;50.880;12.096;2022-12-04T13:48:33;616.33;;;78.70;;
24373;SDS011;12498;50.880;12.096;2022-12-04T13:51:06;372.35;;;76.03;;
24373;SDS011;12498;50.880;12.096;2022-12-04T13:54:17;619.58;;;82.47;;
24373;SDS011;12498;50.880;12.096;2022-12-04T13:56:50;612.00;;;77.03;;
24373;SDS011;12498;50.880;12.096;2022-12-04T14:01:49;392.67;;;77.90;;
24373;SDS011;12498;50.880;12.096;2022-12-04T14:06:48;331.10;;;73.80;;
24373;SDS011;12498;50.880;12.096;2022-12-04T14:09:24;496.30;;;76.60;;
24373;SDS011;12498;50.880;12.096;2022-12-04T14:12:10;390.52;;;77.15;;
24373;SDS011;12498;50.880;12.096;2022-12-04T14:15:22;615.22;;;78.05;;
24373;SDS011;12498;50.880;12.096;2022-12-04T14:20:29;300.08;;;76.30;;
24373;SDS011;12498;50.880;12.096;2022-12-04T14:23:56;535.53;;;77.47;;
24373;SDS011;12498;50.880;12.096;2022-12-04T14:25:57;312.15;;;75.03;;
24373;SDS011;12498;50.880;12.096;2022-12-04T14:31:11;472.88;;;79.93;;
24373;SDS011;12498;50.880;12.096;2022-12-04T14:33:47;426.83;;;79.20;;
24373;SDS011;12498;50.880;12.096;2022-12-04T14:39:01;361.98;;;75.70;;
24373;SDS011;12498;50.880;12.096;2022-12-04T14:41:38;404.05;;;78.10;;
24373;SDS011;12498;50.880;12.096;2022-12-04T14:44:04;589.28;;;81.80;;
24373;SDS011;12498;50.880;12.096;2022-12-04T14:46:34;373.95;;;75.95;;
24373;SDS011;12498;50.880;12.096;2022-12-04T14:49:27;407.73;;;76.40;;
24373;SDS011;12498;50.880;12.096;2022-12-04T14:52:13;354.98;;;77.25;;
24373;SDS011;12498;50.880;12.096;2022-12-04T14:55:06;415.23;;;73.35;;
24373;SDS011;12498;50.880;12.096;2022-12-04T14:57:57;375.77;;;77.40;;
24373;SDS011;12498;50.880;12.096;2022-12-04T15:00:48;291.58;;;74.45;;
24373;SDS011;12498;50.880;12.096;2022-12-04T15:03:19;628.92;;;79.60;;
24373;SDS011;12498;50.880;12.096;2022-12-04T15:05:45;452.80;;;79.18;;
24373;SDS011;12498;50.880;12.096;2022-12-04T15:08:13;504.70;;;82.90;;
24373;SDS011;12498;50.880;12.096;2022-12-04T15:10:39;482.38;;;79.38;;
24373;SDS011;12498;50.880;12.096;2022-12-04T15:13:31;418.63;;;80.57;;
24373;SDS011;12498;50.880;12.096;2022-12-04T15:16:06;404.80;;;78.85;;
24373;SDS011;12498;50.880;12.096;2022-12-04T15:18:34;410.52;;;77.63;;
24373;SDS011;12498;50.880;12.096;2022-12-04T15:20:59;344.65;;;75.72;;
24373;SDS011;12498;50.880;12.096;2022-12-04T15:23:34;511.67;;;79.22;;
24373;SDS011;12498;50.880;12.096;2022-12-04T15:26:03;324.13;;;77.07;;
24373;SDS011;12498;50.880;12.096;2022-12-04T15:28:40;364.98;;;75.55;;
24373;SDS011;12498;50.880;12.096;2022-12-04T15:31:13;590.53;;;78.30;;
24373;SDS011;12498;50.880;12.096;2022-12-04T15:33:49;352.05;;;77.20;;
24373;SDS011;12498;50.880;12.096;2022-12-04T15:38:48;405.05;;;76.53;;
24373;SDS011;12498;50.880;12.096;2022-12-04T15:41:30;425.40;;;78.32;;
24373;SDS011;12498;50.880;12.096;2022-12-04T15:43:58;479.38;;;77.05;;
24373;SDS011;12498;50.880;12.096;2022-12-04T15:46:31;334.25;;;79.70;;
24373;SDS011;12498;50.880;12.096;2022-12-04T15:49:05;559.42;;;81.32;;
24373;SDS011;12498;50.880;12.096;2022-12-04T15:52:01;361.88;;;76.20;;
24373;SDS011;12498;50.880;12.096;2022-12-04T15:54:29;717.63;;;81.85;;
24373;SDS011;12498;50.880;12.096;2022-12-04T15:57:03;382.08;;;76.13;;
24373;SDS011;12498;50.880;12.096;2022-12-04T15:59:39;433.45;;;77.47;;
24373;SDS011;12498;50.880;12.096;2022-12-04T16:02:07;437.52;;;81.93;;
24373;SDS011;12498;50.880;12.096;2022-12-04T16:04:46;404.00;;;80.22;;
24373;SDS011;12498;50.880;12.096;2022-12-04T16:07:22;327.98;;;76.15;;
24373;SDS011;12498;50.880;12.096;2022-12-04T16:09:51;489.25;;;79.28;;
24373;SDS011;12498;50.880;12.096;2022-12-04T16:12:24;493.17;;;81.05;;
24373;SDS011;12498;50.880;12.096;2022-12-04T16:14:52;379.50;;;78.30;;
24373;SDS011;12498;50.880;12.096;2022-12-04T16:17:19;335.23;;;78.43;;
24373;SDS011;12498;50.880;12.096;2022-12-04T16:19:46;405.48;;;80.15;;
24373;SDS011;12498;50.880;12.096;2022-12-04T16:22:13;344.40;;;80.00;;
24373;SDS011;12498;50.880;12.096;2022-12-04T16:24:44;314.33;;;77.45;;
24373;SDS011;12498;50.880;12.096;2022-12-04T16:27:13;389.02;;;82.22;;
24373;SDS011;12498;50.880;12.096;2022-12-04T16:29:41;546.38;;;78.85;;
24373;SDS011;12498;50.880;12.096;2022-12-04T16:32:11;325.90;;;79.57;;
24373;SDS011;12498;50.880;12.096;2022-12-04T16:34:39;340.65;;;77.70;;